Time;durP1;ratioP1;P1;durP2;ratioP2;P2;SDS_P1;SDS_P2;PMS_P1;PMS_P2;Temp;Humidity;BMP_temperature;BMP_pressure;BME280_temperature;BME280_humidity;BME280_pressure;Samples;Min_cycle;Max_cycle;Signal;HPM_P1;HPM_P2
2023/08/17 00:00:25;;;;;;;0.13;0.13;;;;;;;18.96;100.00;99896.00;12233928;19;20019;-82
2023/08/17 00:04:26;;;;;;;0.10;0.10;;;;;;;18.94;100.00;99907.44;12235233;19;20473;-83
2023/08/17 00:08:28;;;;;;;0.10;0.10;;;;;;;18.90;100.00;99903.63;12235520;19;20010;-81
2023/08/17 00:12:30;;;;;;;0.13;0.13;;;;;;;18.90;100.00;99896.06;12237086;19;20030;-82
2023/08/17 00:16:32;;;;;;;0.10;0.10;;;;;;;18.91;100.00;99896.88;12239275;19;20013;-82
2023/08/17 00:20:34;;;;;;;0.10;0.10;;;;;;;18.93;100.00;99894.63;12235702;19;20029;-81
2023/08/17 00:24:35;;;;;;;0.13;0.13;;;;;;;18.90;100.00;99901.66;12233806;19;20010;-82
2023/08/17 00:28:37;;;;;;;0.10;0.10;;;;;;;18.95;100.00;99900.75;12236033;19;20010;-82
2023/08/17 00:32:39;;;;;;;0.10;0.10;;;;;;;18.91;100.00;99899.69;12234877;19;20007;-82
2023/08/17 00:36:41;;;;;;;0.10;0.10;;;;;;;18.92;100.00;99898.56;12235419;19;20478;-82
2023/08/17 00:40:43;;;;;;;0.30;0.30;;;;;;;18.92;100.00;99890.19;12234373;19;20102;-82
2023/08/17 00:44:45;;;;;;;0.00;0.00;;;;;;;18.90;100.00;99898.84;12235907;19;20394;-82
2023/08/17 00:48:47;;;;;;;0.38;0.38;;;;;;;18.88;100.00;99886.31;12238480;19;19998;-82
2023/08/17 00:52:49;;;;;;;0.10;0.10;;;;;;;18.92;100.00;99878.16;12233486;19;20710;-83
2023/08/17 00:56:52;;;;;;;0.10;0.10;;;;;;;18.90;100.00;99884.06;12241610;19;20129;-83
2023/08/17 01:00:55;;;;;;;0.10;0.10;;;;;;;18.87;100.00;99881.88;12234811;19;20011;-82
2023/08/17 01:04:58;;;;;;;0.10;0.10;;;;;;;18.89;100.00;99882.41;12236992;19;20006;-82
2023/08/17 01:09:01;;;;;;;0.13;0.13;;;;;;;18.89;100.00;99882.41;12235592;19;20037;-83
2023/08/17 01:13:15;;;;;;;0.20;0.20;;;;;;;18.82;100.00;99874.41;12242149;19;20014;-83
2023/08/17 01:17:28;;;;;;;0.10;0.10;;;;;;;18.83;100.00;99866.88;12255104;19;20023;-82
2023/08/17 01:21:40;;;;;;;0.47;0.47;;;;;;;18.82;100.00;99868.00;12248561;19;20010;-82
2023/08/17 01:25:42;;;;;;;0.10;0.10;;;;;;;18.81;100.00;99869.16;12248930;19;20603;-83
2023/08/17 01:29:43;;;;;;;0.05;0.05;;;;;;;18.80;100.00;99867.47;12250573;19;20002;-83
2023/08/17 01:33:54;;;;;;;0.00;0.00;;;;;;;18.83;100.00;99861.31;12248607;19;20601;-83
2023/08/17 01:38:04;;;;;;;0.10;0.10;;;;;;;18.83;100.00;99862.13;12255663;19;20050;-83
2023/08/17 01:42:06;;;;;;;0.10;0.10;;;;;;;18.85;100.00;99867.38;12248694;19;20002;-83
2023/08/17 01:46:08;;;;;;;0.10;0.10;;;;;;;18.79;100.00;99869.44;12253219;19;20027;-83
2023/08/17 01:50:10;;;;;;;0.10;0.10;;;;;;;18.76;100.00;99847.72;12251454;19;20014;-83
2023/08/17 01:54:12;;;;;;;1.58;0.45;;;;;;;18.76;100.00;99858.88;12253606;19;20674;-83
2023/08/17 01:58:14;;;;;;;0.10;0.10;;;;;;;18.70;100.00;99846.09;12252604;19;20022;-82
2023/08/17 02:02:17;;;;;;;0.10;0.10;;;;;;;18.64;100.00;99856.50;12237966;19;20023;-83
2023/08/17 02:06:18;;;;;;;0.15;0.15;;;;;;;18.61;100.00;99848.75;12239844;19;20003;-83
2023/08/17 02:10:20;;;;;;;0.28;0.28;;;;;;;18.57;100.00;99852.47;12241652;19;20018;-83
2023/08/17 02:14:22;;;;;;;0.60;0.40;;;;;;;18.55;100.00;99849.13;12245002;19;20010;-83
2023/08/17 02:18:24;;;;;;;0.10;0.10;;;;;;;18.52;100.00;99853.34;12247496;19;20014;-82
2023/08/17 02:22:26;;;;;;;0.20;0.20;;;;;;;18.46;100.00;99846.19;12237767;19;20010;-82
2023/08/17 02:26:29;;;;;;;;;;;;;;;18.44;100.00;99848.44;12239630;19;20078;-82
2023/08/17 02:30:31;;;;;;;0.10;0.10;;;;;;;18.36;100.00;99847.16;12238156;19;19918;-82
2023/08/17 02:34:33;;;;;;;0.10;0.10;;;;;;;18.36;100.00;99841.59;12243521;19;20007;-82
2023/08/17 02:38:35;;;;;;;0.35;0.35;;;;;;;18.41;100.00;99844.31;12236488;19;20018;-82
2023/08/17 02:42:36;;;;;;;0.30;0.30;;;;;;;18.41;100.00;99843.47;12234734;19;20122;-82
2023/08/17 02:46:38;;;;;;;0.10;0.10;;;;;;;18.38;100.00;99841.28;12240122;19;20006;-82
2023/08/17 02:50:40;;;;;;;0.10;0.10;;;;;;;18.37;100.00;99843.25;12239604;19;20011;-82
2023/08/17 02:54:41;;;;;;;0.25;0.25;;;;;;;18.36;100.00;99838.81;12241178;19;20011;-83
2023/08/17 02:58:44;;;;;;;0.10;0.10;;;;;;;18.35;100.00;99831.56;12240533;19;20600;-81
2023/08/17 03:02:45;;;;;;;0.20;0.20;;;;;;;18.34;100.00;99845.81;12235169;19;20048;-82
2023/08/17 03:06:47;;;;;;;0.10;0.10;;;;;;;18.34;100.00;99848.59;12236998;19;20007;-83
2023/08/17 03:10:49;;;;;;;0.10;0.10;;;;;;;18.34;100.00;99851.38;12239344;19;20694;-84
2023/08/17 03:14:52;;;;;;;0.10;0.10;;;;;;;18.38;100.00;99852.44;12244590;19;20011;-82
2023/08/17 03:18:54;;;;;;;0.10;0.10;;;;;;;18.45;100.00;99845.34;12235599;19;20038;-82
2023/08/17 03:22:57;;;;;;;0.10;0.10;;;;;;;18.53;100.00;99838.28;12232345;19;20015;-82
2023/08/17 03:26:59;;;;;;;0.10;0.10;;;;;;;18.57;100.00;99844.91;12235874;19;20031;-82
2023/08/17 03:31:02;;;;;;;0.10;0.10;;;;;;;18.59;100.00;99833.44;12235670;19;20010;-81
2023/08/17 03:35:05;;;;;;;0.10;0.10;;;;;;;18.56;100.00;99837.69;12242741;19;20003;-83
2023/08/17 03:39:07;;;;;;;0.10;0.10;;;;;;;18.57;100.00;99846.88;12236307;19;20014;-82
2023/08/17 03:43:08;;;;;;;0.10;0.10;;;;;;;18.58;100.00;99846.56;12233014;19;20038;-82
2023/08/17 03:47:11;;;;;;;0.10;0.10;;;;;;;18.60;100.00;99843.47;12235604;19;20022;-82
2023/08/17 03:51:13;;;;;;;0.20;0.20;;;;;;;18.61;100.00;99851.53;12236676;19;20010;-82
2023/08/17 03:55:15;;;;;;;0.25;0.25;;;;;;;18.61;100.00;99836.75;12240451;19;20010;-82
2023/08/17 03:59:16;;;;;;;0.30;0.30;;;;;;;18.58;100.00;99856.91;12237185;19;20021;-83
2023/08/17 04:03:19;;;;;;;0.20;0.20;;;;;;;18.48;100.00;99863.47;12231705;19;20007;-82
2023/08/17 04:07:22;;;;;;;0.10;0.10;;;;;;;18.44;100.00;99867.97;12234168;19;20003;-82
2023/08/17 04:11:28;;;;;;;0.20;0.20;;;;;;;18.43;100.00;99869.09;12233456;19;20015;-84
2023/08/17 04:15:29;;;;;;;0.10;0.10;;;;;;;18.46;100.00;99876.88;12240510;19;20763;-82
2023/08/17 04:19:31;;;;;;;0.10;0.10;;;;;;;18.50;100.00;99871.53;12232385;19;20014;-83
2023/08/17 04:23:33;;;;;;;0.10;0.10;;;;;;;18.55;100.00;99877.84;12230562;19;20042;-82
2023/08/17 04:27:35;;;;;;;0.20;0.20;;;;;;;18.54;100.00;99881.78;12232106;19;20082;-83
2023/08/17 04:31:37;;;;;;;0.10;0.10;;;;;;;18.56;100.00;99876.75;12234643;19;20006;-83
2023/08/17 04:35:39;;;;;;;0.00;0.00;;;;;;;18.55;100.00;99877.84;12235236;19;20027;-81
2023/08/17 04:39:43;;;;;;;0.33;0.33;;;;;;;18.50;100.00;99877.94;12231821;19;20018;-82
2023/08/17 04:43:50;;;;;;;0.10;0.10;;;;;;;18.47;100.00;99884.09;12232971;19;20019;-81
2023/08/17 04:47:52;;;;;;;0.25;0.25;;;;;;;18.45;100.00;99887.22;12233961;19;20003;-82
2023/08/17 04:51:54;;;;;;;0.10;0.10;;;;;;;18.43;100.00;99894.22;12232966;19;20372;-82
2023/08/17 04:55:56;;;;;;;0.10;0.10;;;;;;;18.47;100.00;99898.06;12238254;19;20007;-82
2023/08/17 04:59:58;;;;;;;0.43;0.43;;;;;;;18.53;100.00;99902.47;12231744;19;20013;-81
2023/08/17 05:04:00;;;;;;;1.93;0.20;;;;;;;18.54;100.00;99906.91;12233436;19;20006;-82
2023/08/17 05:08:02;;;;;;;0.10;0.10;;;;;;;18.53;100.00;99898.81;12232344;19;20010;-82
2023/08/17 05:12:04;;;;;;;0.10;0.10;;;;;;;18.50;100.00;99907.78;12232122;19;20010;-82
2023/08/17 05:16:06;;;;;;;0.22;0.22;;;;;;;18.45;100.00;99903.13;12235517;19;20015;-82
2023/08/17 05:20:10;;;;;;;0.10;0.10;;;;;;;18.46;100.00;99899.19;12233326;19;20024;-82
2023/08/17 05:24:12;;;;;;;0.10;0.10;;;;;;;18.51;100.00;99903.88;12233278;19;20011;-82
2023/08/17 05:28:15;;;;;;;0.20;0.20;;;;;;;18.53;100.00;99898.81;12232555;19;20031;-83
2023/08/17 05:32:17;;;;;;;0.10;0.10;;;;;;;18.59;100.00;99908.78;12233136;19;20010;-83
2023/08/17 05:36:18;;;;;;;0.10;0.10;;;;;;;18.73;100.00;99908.88;12233042;19;20039;-83
2023/08/17 05:40:21;;;;;;;0.20;0.20;;;;;;;18.90;100.00;99906.41;12232732;19;20010;-82
2023/08/17 05:44:23;;;;;;;2.50;1.45;;;;;;;19.00;100.00;99905.41;12235474;19;20508;-83
2023/08/17 05:48:25;;;;;;;0.40;0.40;;;;;;;19.16;100.00;99923.59;12233545;19;20010;-83
2023/08/17 05:52:26;;;;;;;0.20;0.20;;;;;;;19.41;100.00;99916.72;12232504;19;20022;-83
2023/08/17 05:56:28;;;;;;;0.10;0.10;;;;;;;19.70;100.00;99924.09;12234440;19;20057;-83
2023/08/17 06:00:30;;;;;;;1.00;0.38;;;;;;;19.74;100.00;99923.16;12242379;19;20038;-81
2023/08/17 06:04:32;;;;;;;0.10;0.10;;;;;;;19.95;100.00;99912.41;12243402;19;20505;-82
2023/08/17 06:08:34;;;;;;;0.10;0.10;;;;;;;20.01;100.00;99905.56;12242079;19;20006;-82
2023/08/17 06:12:36;;;;;;;0.10;0.10;;;;;;;20.02;100.00;99910.03;12240394;19;20031;-83
2023/08/17 06:16:37;;;;;;;0.35;0.30;;;;;;;20.09;100.00;99914.38;12241630;19;20023;-84
2023/08/17 06:20:39;;;;;;;0.10;0.10;;;;;;;20.09;100.00;99920.81;12239748;19;20019;-83
2023/08/17 06:24:41;;;;;;;0.20;0.20;;;;;;;20.12;100.00;99919.34;12240658;19;20018;-83
2023/08/17 06:28:43;;;;;;;0.22;0.22;;;;;;;20.25;100.00;99926.91;12241013;19;20465;-83
2023/08/17 06:32:45;;;;;;;0.20;0.20;;;;;;;20.41;100.00;99922.66;12239142;19;20015;-83
2023/08/17 06:36:58;;;;;;;0.50;0.47;;;;;;;20.51;100.00;99917.97;12237248;19;20500;-83
2023/08/17 06:41:00;;;;;;;0.20;0.20;;;;;;;20.55;100.00;99914.25;12238752;19;20090;-83
2023/08/17 06:45:03;;;;;;;0.20;0.20;;;;;;;20.80;100.00;99923.25;12239654;19;20023;-84
2023/08/17 06:49:05;;;;;;;0.30;0.30;;;;;;;20.90;100.00;99921.00;12239636;19;20028;-84
2023/08/17 06:53:07;;;;;;;0.10;0.10;;;;;;;20.86;100.00;99924.78;12236398;19;20018;-84
2023/08/17 06:57:08;;;;;;;0.10;0.10;;;;;;;20.88;100.00;99917.72;12237833;19;20307;-84
2023/08/17 07:01:10;;;;;;;0.50;0.47;;;;;;;20.87;100.00;99921.66;12238254;19;20040;-84
2023/08/17 07:05:13;;;;;;;4.50;0.57;;;;;;;20.93;100.00;99928.78;12240905;19;20526;-85
2023/08/17 07:09:15;;;;;;;0.10;0.10;;;;;;;21.09;100.00;99936.81;12238675;19;20600;-85
2023/08/17 07:13:17;;;;;;;0.10;0.10;;;;;;;21.21;100.00;99939.91;12236769;19;20014;-85
2023/08/17 07:17:19;;;;;;;0.30;0.30;;;;;;;21.22;100.00;99935.13;12239945;19;20014;-87
2023/08/17 07:21:20;;;;;;;0.63;0.53;;;;;;;21.22;100.00;99946.34;12241254;19;20019;-86
2023/08/17 07:25:22;;;;;;;0.57;0.40;;;;;;;21.10;100.00;99952.50;12239858;19;20097;-85
2023/08/17 07:29:24;;;;;;;0.20;0.20;;;;;;;21.07;100.00;99948.34;12237158;19;20014;-85
2023/08/17 07:33:26;;;;;;;0.17;0.07;;;;;;;21.00;100.00;99941.53;12234149;19;20077;-86
2023/08/17 07:37:32;;;;;;;0.27;0.27;;;;;;;21.01;100.00;99934.78;12233571;19;20033;-86
2023/08/17 07:41:35;;;;;;;0.30;0.30;;;;;;;20.97;100.00;99933.75;12234638;19;20014;-85
2023/08/17 07:45:36;;;;;;;0.27;0.27;;;;;;;21.05;100.00;99944.22;12232854;19;20010;-85
2023/08/17 07:49:39;;;;;;;0.38;0.20;;;;;;;21.32;100.00;99955.31;12236696;19;20043;-86
2023/08/17 07:53:41;;;;;;;0.10;0.10;;;;;;;21.66;100.00;99947.50;12231747;19;20030;-85
2023/08/17 07:57:43;;;;;;;0.30;0.30;;;;;;;21.87;100.00;99940.19;12233232;19;20018;-85
2023/08/17 08:01:44;;;;;;;0.10;0.10;;;;;;;21.90;100.00;99942.34;12233853;19;20279;-84
2023/08/17 08:05:46;;;;;;;1.10;1.00;;;;;;;21.93;100.00;99947.31;12234845;19;20703;-85
2023/08/17 08:09:49;;;;;;;0.20;0.20;;;;;;;22.10;100.00;99943.78;12234696;19;20061;-85
2023/08/17 08:13:50;;;;;;;3.97;0.38;;;;;;;22.36;100.00;99940.25;12234996;19;20010;-84
2023/08/17 08:17:52;;;;;;;0.47;0.47;;;;;;;22.71;100.00;99933.56;12231459;19;20747;-85
2023/08/17 08:21:54;;;;;;;0.40;0.40;;;;;;;23.01;100.00;99942.22;12227722;19;20011;-84
2023/08/17 08:25:57;;;;;;;0.20;0.20;;;;;;;23.12;100.00;99942.72;12232469;19;20493;-84
2023/08/17 08:29:59;;;;;;;0.90;0.88;;;;;;;23.27;100.00;99939.41;12233184;19;20010;-84
2023/08/17 08:34:01;;;;;;;0.20;0.20;;;;;;;23.42;100.00;99929.63;12233295;19;20074;-83
2023/08/17 08:38:03;;;;;;;0.47;0.30;;;;;;;23.49;100.00;99926.31;12228645;19;20017;-83
2023/08/17 08:42:05;;;;;;;1.90;0.77;;;;;;;23.58;100.00;99933.56;12230712;19;20007;-84
2023/08/17 08:46:07;;;;;;;0.90;0.73;;;;;;;23.63;100.00;99941.81;12232415;19;20014;-84
2023/08/17 08:50:16;;;;;;;0.22;0.22;;;;;;;23.53;100.00;99945.00;12246766;19;20026;-84
2023/08/17 08:54:23;;;;;;;0.82;0.82;;;;;;;23.49;100.00;99955.25;12239983;19;20010;-83
2023/08/17 08:58:25;;;;;;;0.20;0.20;;;;;;;23.54;100.00;99954.25;12228246;19;20006;-84
2023/08/17 09:02:28;;;;;;;0.32;0.32;;;;;;;23.59;100.00;99952.09;12228291;19;20014;-84
2023/08/17 09:06:31;;;;;;;0.17;0.17;;;;;;;23.89;100.00;99946.59;12230883;19;20027;-84
2023/08/17 09:10:47;;;;;;;0.63;0.63;;;;;;;24.17;100.00;99948.97;12231669;19;20010;-84
2023/08/17 09:14:49;;;;;;;0.20;0.20;;;;;;;24.31;100.00;99950.41;12230167;19;20027;-86
2023/08/17 09:18:53;;;;;;;1.75;1.45;;;;;;;24.53;100.00;99932.41;12230626;19;20336;-84
2023/08/17 09:22:58;;;;;;;0.28;0.28;;;;;;;24.78;100.00;99929.78;12226045;19;20430;-84
2023/08/17 09:27:00;;;;;;;0.30;0.30;;;;;;;24.98;100.00;99928.94;12231281;19;20011;-86
2023/08/17 09:31:05;;;;;;;0.17;0.17;;;;;;;24.91;100.00;99920.22;12230115;19;20015;-86
2023/08/17 09:35:07;;;;;;;0.30;0.30;;;;;;;24.69;100.00;99917.72;12238816;19;20007;-84
2023/08/17 09:39:09;;;;;;;1.45;0.70;;;;;;;24.81;100.00;99922.63;12237960;19;20018;-84
2023/08/17 09:43:16;;;;;;;2.28;0.35;;;;;;;25.20;100.00;99918.53;12237313;19;20019;-84
2023/08/17 09:47:21;;;;;;;0.20;0.20;;;;;;;25.31;100.00;99927.38;12241249;19;20490;-84
2023/08/17 09:51:24;;;;;;;1.98;0.88;;;;;;;25.34;100.00;99930.31;12242670;19;20359;-85
2023/08/17 09:55:42;;;;;;;0.52;0.30;;;;;;;25.19;100.00;99926.19;12239600;19;20466;-85
2023/08/17 10:00:11;;;;;;;0.73;0.73;;;;;;;24.92;100.00;99930.31;12241431;19;20010;-85
2023/08/17 10:04:35;;;;;;;0.30;0.30;;;;;;;24.98;100.00;99923.31;12241690;19;20677;-85
2023/08/17 10:08:45;;;;;;;1.13;1.13;;;;;;;25.16;100.00;99914.75;12241124;19;20014;-85
2023/08/17 10:13:07;;;;;;;0.20;0.20;;;;;;;25.26;100.00;99927.63;12242342;19;20029;-85
2023/08/17 10:17:12;;;;;;;0.40;0.40;;;;;;;25.30;100.00;99918.09;12241606;19;20564;-84
2023/08/17 10:21:58;;;;;;;0.65;0.65;;;;;;;25.44;100.00;99921.44;12243542;19;20053;-85
2023/08/17 10:26:09;;;;;;;0.40;0.40;;;;;;;25.57;100.00;99930.78;12247177;19;20010;-85
2023/08/17 10:30:12;;;;;;;0.25;0.25;;;;;;;25.64;100.00;99930.19;12244646;19;20010;-86
2023/08/17 10:34:19;;;;;;;0.47;0.47;;;;;;;25.71;100.00;99927.66;12249685;19;20038;-85
2023/08/17 10:38:21;;;;;;;0.63;0.60;;;;;;;25.80;100.00;99928.38;12237833;19;20021;-85
2023/08/17 10:42:32;;;;;;;;;;;;;;;25.81;100.00;99923.53;12245906;19;20015;-86
2023/08/17 10:46:39;;;;;;;0.40;0.40;;;;;;;26.42;100.00;99923.63;12241857;19;19915;-85
2023/08/17 10:51:13;;;;;;;0.50;0.50;;;;;;;26.26;100.00;99925.50;12250185;19;20593;-86
2023/08/17 10:55:34;;;;;;;1.33;1.05;;;;;;;25.72;100.00;99909.53;12248091;19;20015;-85
2023/08/17 11:00:08;;;;;;;0.50;0.50;;;;;;;25.91;100.00;99912.66;12257829;19;20030;-86
2023/08/17 11:04:20;;;;;;;0.52;0.52;;;;;;;25.91;100.00;99915.50;12250696;19;20007;-85
2023/08/17 11:08:34;;;;;;;0.40;0.40;;;;;;;25.75;100.00;99920.13;12257767;19;20040;-86
2023/08/17 11:13:04;;;;;;;2.55;1.33;;;;;;;25.87;100.00;99925.81;12255072;19;20018;-86
2023/08/17 11:17:15;;;;;;;0.75;0.63;;;;;;;26.28;100.00;99923.16;12251416;19;19998;-86
2023/08/17 11:22:19;;;;;;;0.55;0.50;;;;;;;26.59;100.00;99916.94;12253215;19;20415;-86
2023/08/17 11:31:38;;;;;;;0.10;0.10;;;;;;;26.96;100.00;99914.03;12243536;19;20357;-85
2023/08/17 11:35:44;;;;;;;0.25;0.25;;;;;;;26.93;100.00;99906.28;12236205;19;20082;-86
2023/08/17 11:39:57;;;;;;;;;;;;;;;27.07;100.00;99900.22;12239261;19;20493;-86
2023/08/17 11:44:02;;;;;;;0.45;0.43;;;;;;;27.41;100.00;99896.81;12237439;19;20357;-84
2023/08/17 11:52:41;;;;;;;0.80;0.80;;;;;;;28.23;100.00;99880.34;12236525;19;20125;-85
2023/08/17 12:07:29;;;;;;;;;;;;;;;;;;;;;
2023/08/17 12:12:30;;;;;;;;;;;;;;;;;;;;;
2023/08/17 12:16:50;;;;;;;0.40;0.40;;;;;;;30.34;100.00;99884.72;12221674;19;20006;-85
2023/08/17 12:21:14;;;;;;;0.20;0.20;;;;;;;30.47;100.00;99888.19;12232182;19;20019;-85
2023/08/17 12:25:54;;;;;;;0.38;0.38;;;;;;;31.17;100.00;99890.41;12231625;19;20006;-84
2023/08/17 12:29:55;;;;;;;8.35;1.45;;;;;;;32.06;100.00;99899.16;12230836;19;20019;-84
2023/08/17 12:33:57;;;;;;;;;;;;;;;32.35;85.93;99897.34;12232979;19;20007;-85
2023/08/17 12:37:59;;;;;;;0.52;0.45;;;;;;;33.01;83.09;99891.72;12233795;19;19923;-85
2023/08/17 12:42:01;;;;;;;0.43;0.43;;;;;;;33.49;80.63;99885.78;12232026;19;20022;-84
2023/08/17 12:46:03;;;;;;;0.70;0.70;;;;;;;33.73;81.71;99891.97;12233514;19;20040;-85
2023/08/17 12:50:05;;;;;;;0.57;0.57;;;;;;;32.77;77.30;99890.34;12232954;19;20010;-85
2023/08/17 12:54:07;;;;;;;0.35;0.35;;;;;;;32.57;73.65;99886.13;12229350;19;20011;-85
2023/08/17 12:58:10;;;;;;;1.02;0.73;;;;;;;32.17;78.94;99897.22;12228882;19;20011;-84
2023/08/17 13:02:12;;;;;;;0.60;0.60;;;;;;;32.13;79.15;99893.53;12225949;19;20019;-85
2023/08/17 13:06:14;;;;;;;0.32;0.32;;;;;;;32.15;75.37;99887.41;12230826;19;20548;-84
2023/08/17 13:10:16;;;;;;;0.65;0.65;;;;;;;31.94;78.39;99879.50;12227497;19;20123;-83
2023/08/17 13:14:17;;;;;;;1.13;1.02;;;;;;;32.21;74.47;99863.84;12226035;19;20027;-84
2023/08/17 13:18:19;;;;;;;0.52;0.52;;;;;;;32.66;73.39;99858.91;12227481;19;20023;-84
2023/08/17 13:22:21;;;;;;;0.68;0.68;;;;;;;32.76;73.03;99862.22;12225955;19;20007;-84
2023/08/17 13:26:23;;;;;;;;;;;;;;;32.20;76.07;99850.81;12228331;19;20154;-84
2023/08/17 13:30:25;;;;;;;0.55;0.22;;;;;;;31.70;77.31;99849.53;12225430;19;19918;-84
2023/08/17 13:34:27;;;;;;;;;;;;;;;31.16;74.56;99856.66;12227644;19;20106;-84
2023/08/17 13:38:28;;;;;;;0.52;0.45;;;;;;;31.15;76.43;99853.00;12222256;19;19915;-84
2023/08/17 13:42:30;;;;;;;0.65;0.63;;;;;;;31.21;75.95;99831.50;12225777;19;20027;-84
2023/08/17 13:46:32;;;;;;;;;;;;;;;31.47;77.37;99815.53;12227773;19;20047;-84
2023/08/17 13:50:37;;;;;;;4.47;3.70;;;;;;;31.82;75.07;99795.09;12225461;19;19923;-84
2023/08/17 13:54:40;;;;;;;10.50;7.18;;;;;;;31.61;73.12;99783.53;12226172;19;20018;-84
2023/08/17 13:58:42;;;;;;;9.85;4.07;;;;;;;31.27;75.57;99786.44;12223528;19;20066;-84
2023/08/17 14:02:43;;;;;;;4.78;3.80;;;;;;;31.13;78.71;99770.00;12222176;19;20091;-84
2023/08/17 14:06:45;;;;;;;9.30;3.50;;;;;;;30.90;77.11;99780.72;12225946;19;20022;-84
2023/08/17 14:10:47;;;;;;;5.93;3.75;;;;;;;30.83;78.14;99781.47;12223555;19;20018;-84
2023/08/17 14:14:49;;;;;;;4.18;3.50;;;;;;;30.92;75.63;99784.81;12225187;19;20485;-84
2023/08/17 14:18:51;;;;;;;5.65;4.00;;;;;;;31.39;73.13;99771.13;12223497;19;20846;-84
2023/08/17 14:22:52;;;;;;;4.35;3.22;;;;;;;31.51;69.67;99768.81;12231245;19;20032;-84
2023/08/17 14:26:56;;;;;;;3.53;2.83;;;;;;;31.22;71.14;99761.97;12237103;19;20007;-84
2023/08/17 14:30:58;;;;;;;6.50;3.95;;;;;;;30.82;71.34;99757.06;12233893;19;20121;-84
2023/08/17 14:34:59;;;;;;;4.28;3.42;;;;;;;30.70;69.70;99755.28;12236429;19;20506;-84
2023/08/17 14:39:01;;;;;;;7.57;3.38;;;;;;;30.98;72.92;99748.31;12229236;19;20025;-84
2023/08/17 14:43:03;;;;;;;5.30;3.35;;;;;;;31.31;72.74;99728.31;12232026;19;20010;-84
2023/08/17 14:47:05;;;;;;;3.40;2.90;;;;;;;31.45;69.51;99716.28;12234093;19;20368;-84
2023/08/17 14:51:07;;;;;;;;;;;;;;;31.54;70.45;99713.91;12232850;19;20122;-84
2023/08/17 14:55:09;;;;;;;5.18;2.90;;;;;;;32.04;67.02;99706.94;12232848;19;19994;-85
2023/08/17 14:59:10;;;;;;;;;;;;;;;32.26;67.45;99694.47;12232635;19;20022;-84
2023/08/17 15:03:12;;;;;;;3.90;3.15;;;;;;;32.22;64.91;99680.19;12229895;19;20327;-84
2023/08/17 15:07:14;;;;;;;3.92;3.10;;;;;;;31.78;64.88;99683.97;12233036;19;20010;-84
2023/08/17 15:11:16;;;;;;;5.80;3.55;;;;;;;31.38;66.63;99672.66;12232147;19;20117;-84
2023/08/17 15:15:18;;;;;;;5.10;3.22;;;;;;;31.08;68.69;99679.28;12233578;19;20404;-84
2023/08/17 15:19:22;;;;;;;4.57;3.40;;;;;;;31.03;70.10;99682.50;12233055;19;20014;-84
2023/08/17 15:23:41;;;;;;;7.25;4.15;;;;;;;30.84;68.65;99686.38;12230098;19;20010;-83
2023/08/17 15:27:42;;;;;;;4.63;3.28;;;;;;;30.74;70.78;99695.59;12232008;19;20027;-83
2023/08/17 15:31:44;;;;;;;5.75;3.17;;;;;;;30.61;70.56;99689.34;12229532;19;20082;-84
2023/08/17 15:35:46;;;;;;;4.53;3.13;;;;;;;30.48;72.78;99683.09;12231821;19;20014;-84
2023/08/17 15:39:48;;;;;;;;;;;;;;;30.36;72.74;99689.84;12227411;19;20397;-84
2023/08/17 15:43:49;;;;;;;7.07;3.10;;;;;;;30.17;73.84;99681.47;12229763;19;19927;-84
2023/08/17 15:47:51;;;;;;;4.40;3.13;;;;;;;30.05;73.12;99678.84;12231452;19;20335;-84
2023/08/17 15:51:53;;;;;;;4.50;3.00;;;;;;;30.01;74.33;99680.81;12229970;19;20017;-84
2023/08/17 15:55:55;;;;;;;8.18;4.40;;;;;;;30.06;74.67;99686.97;12231118;19;20086;-84
2023/08/17 15:59:56;;;;;;;5.90;3.00;;;;;;;30.10;75.28;99695.53;12228496;19;21641;-84
2023/08/17 16:03:58;;;;;;;7.18;3.40;;;;;;;30.08;75.19;99690.25;12231537;19;20022;-84
2023/08/17 16:08:00;;;;;;;;;;;;;;;30.11;76.77;99697.22;12233494;19;20828;-83
2023/08/17 16:12:02;;;;;;;5.13;2.40;;;;;;;30.07;74.61;99699.97;12230614;19;19916;-83
2023/08/17 16:16:04;;;;;;;4.18;2.67;;;;;;;29.99;73.55;99698.25;12230837;19;20027;-84
2023/08/17 16:20:10;;;;;;;10.82;3.15;;;;;;;30.07;76.05;99705.66;12227190;19;20010;-83
2023/08/17 16:24:12;;;;;;;6.35;3.50;;;;;;;30.13;74.74;99704.16;12228557;19;20019;-84
2023/08/17 16:28:13;;;;;;;;;;;;;;;30.11;73.50;99708.56;12231719;19;20090;-84
2023/08/17 16:32:15;;;;;;;4.60;2.80;;;;;;;29.98;72.02;99719.31;12229153;19;19914;-84
2023/08/17 16:36:17;;;;;;;5.07;2.60;;;;;;;29.83;71.33;99726.81;12226592;19;20018;-84
2023/08/17 16:40:19;;;;;;;7.18;3.15;;;;;;;29.73;72.76;99741.69;12229144;19;20018;-83
2023/08/17 16:44:37;;;;;;;5.50;3.30;;;;;;;29.63;74.58;99740.31;12227903;19;20003;-84
2023/08/17 16:48:39;;;;;;;5.72;2.70;;;;;;;29.56;74.41;99745.00;12227069;19;20078;-84
2023/08/17 16:52:41;;;;;;;4.03;2.47;;;;;;;29.41;73.83;99752.44;12226544;19;20398;-84
2023/08/17 16:56:43;;;;;;;4.07;2.88;;;;;;;29.25;74.39;99755.44;12228830;19;20081;-84
2023/08/17 17:00:45;;;;;;;3.50;2.35;;;;;;;29.06;74.26;99759.94;12227455;19;20501;-84
2023/08/17 17:04:47;;;;;;;3.20;2.60;;;;;;;29.11;74.87;99766.50;12228407;19;20014;-84
2023/08/17 17:08:48;;;;;;;4.00;3.20;;;;;;;29.18;73.57;99761.78;12228492;19;20030;-84
2023/08/17 17:12:50;;;;;;;4.55;2.30;;;;;;;29.40;73.73;99763.00;12226589;19;20015;-83
2023/08/17 17:16:52;;;;;;;3.00;2.28;;;;;;;29.95;69.86;99755.03;12230389;19;20040;-83
2023/08/17 17:20:54;;;;;;;4.88;2.50;;;;;;;29.86;69.94;99750.78;12228530;19;20017;-84
2023/08/17 17:24:55;;;;;;;;;;;;;;;29.39;70.99;99738.66;12226250;19;20022;-83
2023/08/17 17:28:57;;;;;;;3.77;2.67;;;;;;;29.07;72.22;99736.06;12228785;19;19922;-84
2023/08/17 17:32:59;;;;;;;4.47;2.45;;;;;;;28.86;73.80;99732.78;12223668;19;20094;-83
2023/08/17 17:37:03;;;;;;;6.47;2.90;;;;;;;28.47;75.83;99723.47;12224976;19;20038;-83
2023/08/17 17:41:05;;;;;;;3.33;2.47;;;;;;;28.23;76.25;99733.88;12225187;19;20050;-83
2023/08/17 17:45:07;;;;;;;8.77;2.38;;;;;;;28.04;77.84;99726.13;12225604;19;20098;-84
2023/08/17 17:49:08;;;;;;;;;;;;;;;27.78;79.17;99725.91;12225152;19;20018;-83
2023/08/17 17:53:10;;;;;;;5.45;2.72;;;;;;;27.61;83.46;99727.94;12221400;19;20007;-83
2023/08/17 17:57:12;;;;;;;10.25;2.95;;;;;;;27.32;87.15;99729.22;12239890;19;20021;-83
2023/08/17 18:01:14;;;;;;;4.97;3.03;;;;;;;27.02;90.35;99740.94;12236783;19;20014;-83
2023/08/17 18:05:16;;;;;;;5.07;2.42;;;;;;;26.76;93.26;99747.06;12237358;19;20014;-83
2023/08/17 18:09:19;;;;;;;6.13;2.50;;;;;;;26.47;95.91;99738.91;12237669;19;20022;-84
2023/08/17 18:13:22;;;;;;;5.68;2.70;;;;;;;26.25;96.70;99743.91;12233882;19;20077;-83
2023/08/17 18:17:23;;;;;;;4.97;2.53;;;;;;;26.03;98.58;99748.09;12236194;19;20031;-83
2023/08/17 18:21:29;;;;;;;5.30;2.67;;;;;;;25.85;99.91;99747.53;12233356;19;20047;-83
2023/08/17 18:25:31;;;;;;;13.02;3.17;;;;;;;25.72;100.00;99754.31;12238141;19;20011;-84
2023/08/17 18:29:34;;;;;;;9.52;2.70;;;;;;;25.49;100.00;99759.59;12234955;19;20015;-83
2023/08/17 18:33:36;;;;;;;10.02;2.75;;;;;;;25.28;100.00;99767.31;12235731;19;19998;-83
2023/08/17 18:37:37;;;;;;;9.07;2.78;;;;;;;25.07;100.00;99761.72;12238513;19;20018;-83
2023/08/17 18:41:39;;;;;;;8.77;2.83;;;;;;;24.86;100.00;99768.22;12236001;19;20018;-83
2023/08/17 18:45:41;;;;;;;7.72;2.80;;;;;;;24.69;100.00;99769.25;12252240;19;20042;-83
2023/08/17 18:49:43;;;;;;;6.50;2.80;;;;;;;24.55;100.00;99774.34;12239788;19;20505;-83
2023/08/17 18:53:45;;;;;;;8.70;3.23;;;;;;;24.35;100.00;99775.94;12231551;19;20039;-84
2023/08/17 18:57:49;;;;;;;9.43;3.25;;;;;;;24.23;100.00;99779.50;12235811;19;21014;-83
2023/08/17 19:01:51;;;;;;;7.07;3.20;;;;;;;24.05;100.00;99790.06;12233274;19;20018;-83
2023/08/17 19:05:52;;;;;;;6.63;3.00;;;;;;;23.94;100.00;99786.00;12234843;19;20017;-83
2023/08/17 19:09:54;;;;;;;9.80;3.63;;;;;;;23.79;100.00;99793.03;12231797;19;20701;-83
2023/08/17 19:13:56;;;;;;;7.57;3.43;;;;;;;23.70;100.00;99800.69;12234771;19;20002;-83